Time;durP1;ratioP1;P1;durP2;ratioP2;P2;SDS_P1;SDS_P2;PMS_P1;PMS_P2;Temp;Humidity;BMP_temperature;BMP_pressure;BME280_temperature;BME280_humidity;BME280_pressure;Samples;Min_cycle;Max_cycle;Signal;HPM_P1;HPM_P2
2023/08/30 00:00:22;;;;;;;1.48;0.90;;;;;;;15.86;64.96;99656.47;10287593;28;20054;-71
2023/08/30 00:05:24;;;;;;;0.82;0.77;;;;;;;15.86;65.27;99664.59;10292029;28;20055;-72
2023/08/30 00:10:25;;;;;;;1.00;0.60;;;;;;;15.86;65.29;99659.19;10287610;28;20110;-71
2023/08/30 00:15:27;;;;;;;2.72;0.63;;;;;;;15.69;65.72;99660.81;10288135;28;20144;-73
2023/08/30 00:20:29;;;;;;;3.53;1.02;;;;;;;15.64;65.70;99661.50;10289871;28;20059;-74
2023/08/30 00:25:30;;;;;;;1.00;0.80;;;;;;;15.69;65.73;99658.09;10289314;28;20070;-70
2023/08/30 00:30:31;;;;;;;4.25;0.90;;;;;;;15.74;65.67;99667.25;10288473;28;20290;-71
2023/08/30 00:35:33;;;;;;;0.82;0.80;;;;;;;15.72;65.74;99663.06;10283548;28;20065;-70
2023/08/30 00:40:39;;;;;;;1.25;0.80;;;;;;;15.68;66.04;99662.69;10285503;28;20054;-70
2023/08/30 00:45:40;;;;;;;4.22;0.80;;;;;;;15.78;66.01;99670.34;10298525;28;20070;-72
2023/08/30 00:50:42;;;;;;;1.48;1.02;;;;;;;15.90;65.59;99659.56;10288593;28;20063;-73
2023/08/30 00:55:44;;;;;;;2.05;1.13;;;;;;;16.00;65.49;99640.88;10289648;28;20114;-72
2023/08/30 01:00:47;;;;;;;1.95;1.52;;;;;;;16.08;65.78;99645.13;10285120;28;20311;-71
2023/08/30 01:05:48;;;;;;;3.10;1.10;;;;;;;16.11;65.84;99647.38;10285023;28;20085;-73
2023/08/30 01:10:59;;;;;;;2.15;1.02;;;;;;;16.13;65.50;99637.94;10286725;28;20065;-71
2023/08/30 01:16:01;;;;;;;1.70;1.30;;;;;;;16.11;65.71;99634.63;10282931;28;20073;-72
2023/08/30 01:21:07;;;;;;;2.65;0.90;;;;;;;16.13;65.84;99629.00;10284184;28;20054;-74
2023/08/30 01:26:27;;;;;;;1.50;1.10;;;;;;;16.11;65.76;99636.53;10281915;28;20121;-77
2023/08/30 01:31:33;;;;;;;2.60;1.27;;;;;;;16.10;65.76;99626.75;10280487;28;20118;-72
2023/08/30 01:36:36;;;;;;;2.23;1.30;;;;;;;15.95;66.13;99633.41;10281918;28;20055;-77
2023/08/30 01:41:38;;;;;;;1.50;1.33;;;;;;;15.69;66.75;99622.88;10283204;28;20047;-73
2023/08/30 01:46:40;;;;;;;2.55;1.27;;;;;;;15.73;66.68;99615.97;10284593;28;20074;-70
2023/08/30 01:51:41;;;;;;;4.20;1.40;;;;;;;15.72;66.50;99614.28;10281237;28;20099;-71
2023/08/30 01:56:43;;;;;;;3.05;1.30;;;;;;;15.53;67.17;99614.31;10286219;28;20082;-72
2023/08/30 02:01:44;;;;;;;2.38;1.00;;;;;;;15.59;67.10;99618.81;10284569;28;20050;-72
2023/08/30 02:06:57;;;;;;;3.03;1.10;;;;;;;15.67;66.90;99613.09;10286376;28;20090;-70
2023/08/30 02:12:03;;;;;;;9.25;1.50;;;;;;;15.62;67.13;99603.97;10285686;28;20062;-72
2023/08/30 02:17:05;;;;;;;4.93;1.00;;;;;;;15.60;67.05;99597.97;10284592;28;20064;-73
2023/08/30 02:22:07;;;;;;;1.50;1.05;;;;;;;15.73;66.62;99607.84;10277873;28;20074;-71
2023/08/30 02:27:08;;;;;;;3.05;1.08;;;;;;;15.81;66.63;99605.63;10281076;28;20114;-71
2023/08/30 02:32:11;;;;;;;1.17;0.70;;;;;;;15.82;66.98;99609.19;10280077;28;20094;-72
2023/08/30 02:37:12;;;;;;;1.35;1.15;;;;;;;15.89;66.78;99609.91;10278921;28;20396;-72
2023/08/30 02:42:14;;;;;;;3.28;1.20;;;;;;;15.83;66.91;99605.41;10281720;28;20053;-70
2023/08/30 02:47:15;;;;;;;2.53;0.90;;;;;;;15.94;66.46;99601.94;10297389;28;20047;-71
2023/08/30 02:52:17;;;;;;;2.15;1.30;;;;;;;15.97;66.56;99601.47;10282939;28;20180;-72
2023/08/30 02:57:19;;;;;;;3.15;1.48;;;;;;;16.00;66.71;99606.44;10281259;28;20350;-71
2023/08/30 03:02:20;;;;;;;3.30;1.38;;;;;;;16.02;66.77;99601.63;10277159;28;20589;-74
2023/08/30 03:07:22;;;;;;;3.20;1.30;;;;;;;16.06;66.71;99597.38;10285915;28;20217;-75
2023/08/30 03:12:23;;;;;;;3.70;1.48;;;;;;;16.12;66.68;99600.25;10280880;28;20046;-73
2023/08/30 03:17:24;;;;;;;2.92;1.73;;;;;;;16.12;66.57;99592.94;10279166;28;20105;-76
2023/08/30 03:22:26;;;;;;;2.78;1.02;;;;;;;16.14;66.67;99598.13;10281804;28;20051;-72
2023/08/30 03:27:27;;;;;;;1.80;1.35;;;;;;;16.10;66.66;99595.03;10276114;28;20054;-70
2023/08/30 03:32:30;;;;;;;2.08;1.50;;;;;;;16.16;66.55;99596.00;10285995;28;20047;-71
2023/08/30 03:37:31;;;;;;;4.13;2.55;;;;;;;16.19;66.65;99598.25;10295361;28;20050;-71
2023/08/30 03:42:33;;;;;;;3.58;1.98;;;;;;;16.15;66.70;99597.91;10294513;28;20113;-74
2023/08/30 03:47:34;;;;;;;5.25;2.60;;;;;;;16.15;66.99;99597.91;10289135;28;20065;-76
2023/08/30 03:52:36;;;;;;;5.55;2.47;;;;;;;16.18;67.02;99604.72;10288780;28;20134;-72
2023/08/30 03:57:37;;;;;;;3.72;2.58;;;;;;;16.22;66.86;99595.06;10282175;28;20058;-71
2023/08/30 04:02:38;;;;;;;3.95;2.65;;;;;;;16.24;66.67;99588.34;10286659;28;20106;-70
2023/08/30 04:07:40;;;;;;;4.28;2.95;;;;;;;16.23;67.05;99591.28;10285962;28;20339;-71
2023/08/30 04:12:41;;;;;;;4.40;2.60;;;;;;;16.17;67.17;99590.34;10288314;28;20061;-72
2023/08/30 04:17:42;;;;;;;4.65;2.53;;;;;;;16.19;67.37;99598.25;10282397;28;20145;-71
2023/08/30 04:22:44;;;;;;;3.83;2.53;;;;;;;16.27;67.19;99595.19;10282573;28;20059;-73
2023/08/30 04:27:45;;;;;;;5.15;3.00;;;;;;;16.28;67.24;99598.75;10284472;28;20111;-72
2023/08/30 04:32:47;;;;;;;6.68;2.90;;;;;;;16.20;67.76;99591.78;10286101;28;20411;-72
2023/08/30 04:37:48;;;;;;;5.97;3.10;;;;;;;16.18;67.51;99585.75;10288322;28;20046;-73
2023/08/30 04:42:50;;;;;;;3.85;2.90;;;;;;;16.25;67.41;99597.31;10287946;28;20436;-71
2023/08/30 04:47:52;;;;;;;5.05;2.78;;;;;;;16.30;67.27;99586.59;10299717;28;20069;-71
2023/08/30 04:52:54;;;;;;;6.07;3.08;;;;;;;16.29;67.23;99589.53;10288633;28;20063;-73
2023/08/30 04:57:55;;;;;;;3.83;2.42;;;;;;;16.26;67.43;99583.53;10282999;28;20057;-72
2023/08/30 05:02:56;;;;;;;3.85;2.33;;;;;;;16.31;67.38;99587.41;10290685;28;20061;-72
2023/08/30 05:07:58;;;;;;;7.13;2.45;;;;;;;16.32;67.51;99581.78;10286810;28;20051;-70
2023/08/30 05:12:59;;;;;;;2.95;2.38;;;;;;;16.36;67.54;99577.53;10286772;28;20075;-72
2023/08/30 05:18:01;;;;;;;4.20;2.90;;;;;;;16.40;67.36;99583.31;10284680;28;20327;-71
2023/08/30 05:23:03;;;;;;;3.40;3.00;;;;;;;16.41;67.73;99591.22;10287272;28;20162;-74
2023/08/30 05:28:04;;;;;;;4.60;2.35;;;;;;;16.45;67.64;99591.59;10285930;28;20279;-72
2023/08/30 05:33:06;;;;;;;4.10;2.53;;;;;;;16.51;67.88;99596.09;10279791;28;20069;-70
2023/08/30 05:38:07;;;;;;;3.30;2.75;;;;;;;16.59;67.65;99603.88;10286744;28;20077;-70
2023/08/30 05:43:09;;;;;;;5.68;2.85;;;;;;;16.71;67.70;99600.38;10286810;28;20043;-71
2023/08/30 05:48:11;;;;;;;3.88;2.97;;;;;;;16.80;67.66;99591.59;10289519;28;20093;-69
2023/08/30 05:53:13;;;;;;;2.75;2.20;;;;;;;16.89;67.62;99591.31;10285163;28;20069;-69
2023/08/30 05:58:15;;;;;;;3.10;2.65;;;;;;;17.01;67.50;99584.78;10283287;28;20043;-71
2023/08/30 06:03:16;;;;;;;3.58;2.38;;;;;;;17.16;67.44;99589.75;10285817;28;20574;-70
2023/08/30 06:08:18;;;;;;;4.65;2.58;;;;;;;17.22;67.34;99586.09;10284309;28;20043;-70
2023/08/30 06:13:20;;;;;;;3.20;2.55;;;;;;;17.34;67.07;99580.63;10281739;28;20043;-70
2023/08/30 06:18:21;;;;;;;3.95;2.78;;;;;;;17.44;67.00;99575.41;10284848;28;20309;-70
2023/08/30 06:23:22;;;;;;;4.88;2.70;;;;;;;17.55;67.07;99568.28;10297299;28;20162;-70
2023/08/30 06:28:24;;;;;;;5.07;2.75;;;;;;;17.61;67.09;99578.22;10285136;28;20066;-71
2023/08/30 06:33:25;;;;;;;8.90;3.00;;;;;;;17.72;66.79;99579.22;10284187;28;20074;-72
2023/08/30 06:38:27;;;;;;;27.00;6.03;;;;;;;17.65;66.98;99570.38;10281547;28;20113;-73
2023/08/30 06:43:28;;;;;;;5.97;3.08;;;;;;;17.75;66.74;99581.47;10289358;28;20070;-70
2023/08/30 06:48:30;;;;;;;14.77;3.63;;;;;;;17.76;66.88;99579.56;10281494;28;20065;-71
2023/08/30 06:53:31;;;;;;;6.30;3.25;;;;;;;17.73;66.98;99570.00;10289393;28;20062;-67
2023/08/30 06:58:32;;;;;;;21.55;5.13;;;;;;;17.89;66.88;99571.16;10283552;28;20054;-68
2023/08/30 07:03:34;;;;;;;18.88;4.63;;;;;;;18.07;66.75;99569.28;10282215;28;20114;-68
2023/08/30 07:08:35;;;;;;;5.60;4.00;;;;;;;18.33;66.39;99563.22;10293902;28;20605;-68
2023/08/30 07:13:37;;;;;;;11.10;5.68;;;;;;;18.42;66.63;99558.19;10291466;28;20109;-67
2023/08/30 07:18:39;;;;;;;9.15;6.40;;;;;;;18.36;66.84;99557.25;10289836;28;20055;-70
2023/08/30 07:23:41;;;;;;;9.88;7.18;;;;;;;18.39;67.06;99553.25;10286966;28;20138;-67
2023/08/30 07:28:42;;;;;;;13.10;8.30;;;;;;;18.47;66.80;99543.84;10285729;28;20050;-66
2023/08/30 07:33:44;;;;;;;11.57;8.32;;;;;;;18.53;66.79;99545.56;10288646;28;20055;-68
2023/08/30 07:38:46;;;;;;;12.13;8.55;;;;;;;18.57;66.81;99555.72;10289565;28;20055;-66
2023/08/30 07:43:47;;;;;;;14.88;9.48;;;;;;;18.51;66.88;99558.59;10293788;28;20275;-68
2023/08/30 07:48:49;;;;;;;15.82;10.48;;;;;;;18.69;66.57;99550.19;10289280;28;20043;-66
2023/08/30 07:53:50;;;;;;;19.10;10.75;;;;;;;18.69;66.47;99543.91;10291558;28;20073;-67
2023/08/30 07:58:51;;;;;;;19.13;12.68;;;;;;;18.59;66.52;99548.13;10290163;28;20540;-66
2023/08/30 08:03:53;;;;;;;24.23;14.32;;;;;;;18.52;66.82;99558.38;10287071;28;20114;-66
2023/08/30 08:09:08;;;;;;;16.75;12.60;;;;;;;18.66;66.17;99558.84;10286054;28;20104;-67
2023/08/30 08:14:10;;;;;;;14.35;10.85;;;;;;;18.70;66.06;99556.44;10287494;28;20053;-67
2023/08/30 08:19:12;;;;;;;13.32;10.23;;;;;;;18.78;65.86;99558.75;10294162;28;20046;-68
2023/08/30 08:24:14;;;;;;;11.48;9.35;;;;;;;19.01;65.47;99550.38;10287909;28;20517;-66
2023/08/30 08:29:15;;;;;;;16.35;9.68;;;;;;;19.12;65.30;99553.28;10297855;28;20135;-65
2023/08/30 08:34:16;;;;;;;11.48;9.43;;;;;;;19.20;65.13;99561.81;10289614;28;20355;-67
2023/08/30 08:39:18;;;;;;;9.73;8.73;;;;;;;19.28;65.06;99559.75;10285041;28;20106;-67
2023/08/30 08:44:21;;;;;;;10.32;8.63;;;;;;;19.37;64.91;99553.59;10284915;28;20172;-67
2023/08/30 08:49:23;;;;;;;11.77;8.00;;;;;;;19.46;64.79;99548.50;10288409;28;20129;-67
2023/08/30 08:54:25;;;;;;;11.90;8.88;;;;;;;19.51;64.28;99561.38;10282237;28;20118;-68
2023/08/30 08:59:27;;;;;;;9.43;8.27;;;;;;;19.95;63.54;99545.81;10280966;28;20062;-67
2023/08/30 09:04:30;;;;;;;7.85;6.95;;;;;;;20.07;63.32;99540.19;10286136;28;20089;-67
2023/08/30 09:09:33;;;;;;;11.40;6.80;;;;;;;20.19;63.15;99540.03;10286520;28;20058;-71
2023/08/30 09:14:34;;;;;;;8.43;5.90;;;;;;;20.13;63.25;99547.34;10285284;28;20070;-71
2023/08/30 09:19:36;;;;;;;8.57;5.80;;;;;;;20.18;62.95;99538.38;10286735;28;20137;-69
2023/08/30 09:24:41;;;;;;;8.98;4.18;;;;;;;20.40;62.14;99533.66;10282817;28;20055;-68
2023/08/30 09:29:44;;;;;;;5.82;4.40;;;;;;;20.40;61.85;99541.84;10282478;28;20050;-69
2023/08/30 09:34:47;;;;;;;7.43;4.95;;;;;;;20.62;61.33;99524.56;10286251;28;20069;-68
2023/08/30 09:39:50;;;;;;;5.28;3.83;;;;;;;20.66;60.89;99506.56;10280716;28;20066;-69
2023/08/30 09:44:52;;;;;;;10.90;4.88;;;;;;;20.68;60.90;99503.56;10279291;28;20456;-68
2023/08/30 09:49:58;;;;;;;3.33;2.97;;;;;;;21.04;59.71;99490.09;10286104;28;20047;-70
2023/08/30 09:55:00;;;;;;;6.22;3.53;;;;;;;21.21;59.33;99496.19;10285401;28;20081;-69
2023/08/30 10:00:05;;;;;;;6.10;3.03;;;;;;;21.31;59.08;99493.50;10282858;28;20053;-67
2023/08/30 10:05:08;;;;;;;4.20;2.92;;;;;;;21.41;58.15;99492.72;10287817;28;20046;-68
2023/08/30 10:10:10;;;;;;;6.10;3.50;;;;;;;21.53;57.69;99485.09;10281841;28;20058;-69
2023/08/30 10:15:13;;;;;;;4.43;2.72;;;;;;;21.67;57.19;99471.72;10279882;28;20042;-69
2023/08/30 10:20:15;;;;;;;4.47;3.10;;;;;;;21.93;56.42;99474.50;10290250;28;20110;-70
2023/08/30 10:25:22;;;;;;;3.47;2.60;;;;;;;22.02;55.73;99464.66;10282398;28;20085;-69
2023/08/30 10:30:25;;;;;;;3.83;2.35;;;;;;;22.02;55.63;99461.09;10282310;28;20063;-67
2023/08/30 10:35:26;;;;;;;4.78;1.90;;;;;;;22.08;55.26;99471.78;10287669;28;20043;-67
2023/08/30 10:40:28;;;;;;;3.08;1.90;;;;;;;22.04;54.39;99467.94;10281091;28;20059;-68
2023/08/30 10:45:30;;;;;;;3.55;2.38;;;;;;;22.11;54.12;99464.91;10282565;28;20051;-69
2023/08/30 10:50:33;;;;;;;2.75;1.70;;;;;;;22.21;53.05;99461.38;10281820;28;20042;-69
2023/08/30 10:55:34;;;;;;;4.22;2.17;;;;;;;22.58;52.02;99450.09;10281747;28;20162;-69
2023/08/30 11:00:40;;;;;;;4.60;1.02;;;;;;;22.87;50.89;99446.75;10280162;28;20351;-69
2023/08/30 11:05:42;;;;;;;3.27;1.10;;;;;;;23.31;50.44;99435.03;10279726;28;20114;-68
2023/08/30 11:10:43;;;;;;;3.92;1.23;;;;;;;23.71;49.57;99431.19;10285432;28;20557;-66
2023/08/30 11:15:44;;;;;;;3.55;0.95;;;;;;;23.87;48.92;99431.94;10283079;28;20063;-66
2023/08/30 11:20:46;;;;;;;4.63;1.00;;;;;;;23.82;48.64;99426.50;10281258;28;20382;-66
2023/08/30 11:25:51;;;;;;;3.03;1.42;;;;;;;24.00;47.88;99415.94;10286238;28;20300;-66
2023/08/30 11:30:56;;;;;;;2.17;1.13;;;;;;;24.14;47.47;99411.41;10281502;28;20047;-66
2023/08/30 11:35:58;;;;;;;1.73;1.38;;;;;;;24.24;47.03;99405.00;10275123;28;20507;-66
2023/08/30 11:40:59;;;;;;;1.20;0.90;;;;;;;24.40;46.70;99389.16;10286087;28;20047;-66
2023/08/30 11:46:03;;;;;;;2.42;0.80;;;;;;;24.47;45.93;99373.16;10285553;28;20162;-67
2023/08/30 11:51:05;;;;;;;3.80;1.20;;;;;;;24.83;44.70;99386.50;10282628;28;20054;-66
2023/08/30 11:56:07;;;;;;;2.03;1.15;;;;;;;24.70;45.47;99374.28;10286284;28;20243;-67
2023/08/30 12:01:09;;;;;;;1.05;0.80;;;;;;;24.81;44.47;99373.03;10301745;28;20066;-67
2023/08/30 12:06:12;;;;;;;2.65;0.90;;;;;;;25.30;43.61;99379.28;10287243;28;20070;-66
2023/08/30 12:11:20;;;;;;;1.73;1.10;;;;;;;25.65;43.11;99371.56;10298341;28;20051;-67
2023/08/30 12:16:21;;;;;;;1.35;1.05;;;;;;;25.86;42.38;99372.88;10288523;28;20071;-65
2023/08/30 12:21:23;;;;;;;1.90;1.10;;;;;;;26.00;41.66;99363.84;10287177;28;20054;-66
2023/08/30 12:26:32;;;;;;;1.58;0.98;;;;;;;25.77;42.29;99357.34;10293798;28;20077;-66
2023/08/30 12:31:34;;;;;;;2.97;1.08;;;;;;;25.48;41.52;99367.44;10293410;28;20371;-66
2023/08/30 12:36:35;;;;;;;1.75;1.02;;;;;;;25.32;41.15;99363.28;10297204;28;20102;-66
2023/08/30 12:41:37;;;;;;;2.00;1.15;;;;;;;25.18;41.77;99354.94;10282695;28;20075;-66
2023/08/30 12:46:41;;;;;;;2.38;0.90;;;;;;;25.03;40.82;99357.91;10286550;28;20046;-66
2023/08/30 12:51:42;;;;;;;4.65;1.38;;;;;;;24.72;39.67;99356.41;10285177;28;20050;-66
2023/08/30 12:56:44;;;;;;;2.80;1.00;;;;;;;24.83;39.58;99340.56;10289369;28;20072;-68
2023/08/30 13:01:46;;;;;;;3.00;0.98;;;;;;;25.18;38.83;99341.19;10283867;28;20066;-68
2023/08/30 13:06:47;;;;;;;1.55;0.95;;;;;;;25.46;38.33;99344.91;10287654;28;20355;-71
2023/08/30 13:11:48;;;;;;;2.60;1.20;;;;;;;25.26;38.44;99334.22;10291890;28;20047;-71
2023/08/30 13:16:50;;;;;;;4.85;1.23;;;;;;;25.40;38.60;99332.34;10287453;28;20043;-70
2023/08/30 13:21:51;;;;;;;3.50;0.90;;;;;;;25.71;37.68;99337.31;10289739;28;20571;-69
2023/08/30 13:26:53;;;;;;;3.03;1.10;;;;;;;25.55;36.97;99327.69;10287118;28;20051;-71
2023/08/30 13:31:54;;;;;;;1.58;0.60;;;;;;;25.31;36.37;99323.13;10293667;28;20418;-70
2023/08/30 13:36:55;;;;;;;3.67;0.90;;;;;;;25.33;37.07;99331.91;10285164;28;20074;-70
2023/08/30 13:41:57;;;;;;;3.92;1.08;;;;;;;25.56;36.12;99326.59;10286560;28;20086;-71
2023/08/30 13:46:58;;;;;;;1.45;0.70;;;;;;;25.61;36.75;99343.00;10287544;28;20065;-71
2023/08/30 13:52:00;;;;;;;1.88;0.82;;;;;;;25.52;36.13;99337.38;10288876;28;20070;-70
2023/08/30 13:57:01;;;;;;;1.90;0.90;;;;;;;25.44;36.88;99330.63;10291762;28;20051;-70
2023/08/30 14:02:03;;;;;;;2.22;0.85;;;;;;;25.11;37.71;99332.47;10298194;28;20055;-70
2023/08/30 14:07:05;;;;;;;3.55;1.23;;;;;;;24.88;37.59;99326.78;10304205;28;21303;-70
2023/08/30 14:12:07;;;;;;;2.65;0.77;;;;;;;24.59;37.96;99326.88;10284260;28;20054;-72
2023/08/30 14:17:08;;;;;;;1.75;0.95;;;;;;;24.57;37.66;99323.59;10288557;28;20106;-71
2023/08/30 14:22:10;;;;;;;2.75;1.25;;;;;;;24.50;37.55;99323.09;10293359;28;20054;-71
2023/08/30 14:27:12;;;;;;;2.40;1.15;;;;;;;24.27;37.59;99322.84;10288456;28;20054;-71
2023/08/30 14:32:14;;;;;;;1.70;1.00;;;;;;;24.78;37.36;99328.81;10288468;28;20042;-71
2023/08/30 14:37:15;;;;;;;3.42;1.08;;;;;;;25.18;36.60;99329.34;10287320;28;20050;-71
2023/08/30 14:42:17;;;;;;;2.83;1.40;;;;;;;25.45;36.44;99334.19;10285168;28;20055;-68
2023/08/30 14:47:18;;;;;;;2.72;1.13;;;;;;;26.01;35.73;99318.69;10284524;28;20054;-68
2023/08/30 14:52:19;;;;;;;2.80;1.45;;;;;;;25.71;36.23;99329.91;10284803;28;20126;-72
2023/08/30 14:57:22;;;;;;;7.20;1.38;;;;;;;26.18;36.20;99316.13;10289431;28;20339;-72
2023/08/30 15:02:23;;;;;;;4.47;1.67;;;;;;;26.36;36.48;99319.09;10286101;28;20407;-71
2023/08/30 15:07:25;;;;;;;5.35;2.08;;;;;;;26.46;36.18;99308.69;10285824;28;20073;-70
2023/08/30 15:12:27;;;;;;;2.25;1.17;;;;;;;26.30;36.43;99313.69;10285197;28;20039;-73
2023/08/30 15:17:28;;;;;;;2.85;0.93;;;;;;;26.47;36.04;99318.56;10279733;28;20072;-72
2023/08/30 15:22:29;;;;;;;2.53;1.17;;;;;;;26.15;36.42;99307.69;10303725;28;20067;-74
2023/08/30 15:27:31;;;;;;;2.20;0.90;;;;;;;25.99;36.38;99304.38;10293940;28;20050;-72
2023/08/30 15:32:32;;;;;;;4.35;1.27;;;;;;;25.87;36.69;99302.91;10300190;28;20110;-71
2023/08/30 15:37:34;;;;;;;1.40;1.17;;;;;;;26.34;36.00;99293.78;10294194;28;20385;-72
2023/08/30 15:42:35;;;;;;;2.78;0.90;;;;;;;26.02;36.29;99288.06;10292927;28;20336;-77
2023/08/30 15:47:37;;;;;;;2.30;0.75;;;;;;;25.60;36.92;99284.41;10295737;28;20066;-74
2023/08/30 15:52:38;;;;;;;2.10;0.88;;;;;;;25.70;36.75;99269.63;10313296;28;20051;-71
2023/08/30 15:57:40;;;;;;;2.55;0.80;;;;;;;26.18;36.70;99279.50;10288329;28;20106;-74
2023/08/30 16:02:41;;;;;;;1.30;0.90;;;;;;;26.17;37.04;99277.88;10290322;28;20109;-75
2023/08/30 16:07:43;;;;;;;2.63;0.80;;;;;;;26.22;37.22;99278.56;10289324;28;20051;-74
2023/08/30 16:12:45;;;;;;;3.08;1.02;;;;;;;25.95;37.53;99278.56;10287496;28;20069;-76
2023/08/30 16:17:46;;;;;;;1.27;0.90;;;;;;;25.32;37.93;99286.25;10294730;28;20051;-72
2023/08/30 16:22:48;;;;;;;1.17;0.63;;;;;;;24.96;38.48;99277.69;10291741;28;20275;-72
2023/08/30 16:27:53;;;;;;;2.35;0.90;;;;;;;24.54;39.07;99267.28;10299445;28;20047;-77
2023/08/30 16:32:55;;;;;;;7.35;1.45;;;;;;;24.31;39.07;99276.38;10291870;28;20288;-72
2023/08/30 16:37:57;;;;;;;3.55;1.33;;;;;;;24.12;39.66;99268.88;10289857;28;20119;-72
2023/08/30 16:42:59;;;;;;;3.03;0.55;;;;;;;23.91;40.15;99284.78;10286368;28;20066;-71
2023/08/30 16:48:00;;;;;;;2.08;0.90;;;;;;;23.55;40.93;99290.56;10290461;28;20058;-73
2023/08/30 16:53:08;;;;;;;2.25;0.70;;;;;;;23.36;41.01;99297.88;10290340;28;20074;-73
2023/08/30 16:58:09;;;;;;;1.35;0.60;;;;;;;23.08;41.31;99293.97;10290780;28;20118;-74
2023/08/30 17:03:11;;;;;;;1.45;0.50;;;;;;;22.83;42.43;99303.13;10285884;28;20090;-72
2023/08/30 17:08:13;;;;;;;1.17;0.40;;;;;;;22.62;43.09;99324.38;10284787;28;20058;-73
2023/08/30 17:13:15;;;;;;;0.98;0.60;;;;;;;22.20;44.81;99334.63;10288626;28;20054;-71
2023/08/30 17:18:16;;;;;;;0.80;0.47;;;;;;;21.84;46.54;99342.91;10290106;28;20054;-71
2023/08/30 17:23:17;;;;;;;1.13;0.60;;;;;;;21.43;48.28;99358.47;10287711;28;20137;-71
2023/08/30 17:28:19;;;;;;;0.65;0.40;;;;;;;21.12;49.51;99367.41;10289592;28;20284;-69
2023/08/30 17:33:20;;;;;;;0.82;0.30;;;;;;;20.53;51.79;99375.94;10284028;28;20119;-70
2023/08/30 17:38:22;;;;;;;0.73;0.30;;;;;;;18.38;61.29;99386.44;10282911;28;20058;-69
2023/08/30 17:43:23;;;;;;;3.80;1.05;;;;;;;17.90;62.94;99389.78;10289548;28;20071;-68
2023/08/30 17:48:25;;;;;;;1.33;0.35;;;;;;;17.83;63.19;99398.06;10283876;28;20053;-68
2023/08/30 17:53:26;;;;;;;1.25;0.40;;;;;;;17.76;63.95;99397.44;10293193;28;20088;-70
2023/08/30 17:58:28;;;;;;;2.88;0.30;;;;;;;17.69;64.30;99403.00;10282311;28;20297;-68
2023/08/30 18:03:30;;;;;;;1.08;0.40;;;;;;;17.59;64.88;99403.66;10288348;28;20042;-68
2023/08/30 18:08:32;;;;;;;1.40;0.30;;;;;;;17.53;65.41;99412.78;10284790;28;21347;-69
2023/08/30 18:13:33;;;;;;;0.50;0.30;;;;;;;17.59;66.14;99427.28;10285790;28;20053;-69
2023/08/30 18:18:35;;;;;;;1.27;0.50;;;;;;;17.59;66.68;99438.97;10285741;28;20118;-67
2023/08/30 18:23:41;;;;;;;2.78;0.65;;;;;;;17.48;67.36;99437.16;10285279;28;20078;-69
2023/08/30 18:28:43;;;;;;;6.10;0.50;;;;;;;17.03;69.73;99467.81;10288600;28;20343;-67
2023/08/30 18:33:44;;;;;;;1.63;0.80;;;;;;;16.90;70.60;99479.75;10284319;28;20403;-69
2023/08/30 18:38:46;;;;;;;3.90;0.70;;;;;;;16.70;72.32;99503.72;10285542;28;20347;-70
2023/08/30 18:43:47;;;;;;;1.40;0.57;;;;;;;16.12;74.15;99519.72;10284667;28;20043;-69
2023/08/30 18:48:49;;;;;;;1.83;0.60;;;;;;;15.63;74.28;99508.13;10285563;28;20066;-67
2023/08/30 18:53:51;;;;;;;2.35;1.00;;;;;;;15.21;75.18;99519.69;10293186;28;20063;-67
2023/08/30 18:58:54;;;;;;;5.43;1.10;;;;;;;15.14;75.00;99520.81;10279566;28;20232;-69
2023/08/30 19:03:57;;;;;;;4.60;0.85;;;;;;;15.02;74.98;99515.34;10278260;28;20090;-69
2023/08/30 19:08:58;;;;;;;2.90;0.98;;;;;;;15.03;74.90;99511.59;10281826;28;20059;-70
2023/08/30 19:14:00;;;;;;;5.45;1.13;;;;;;;14.99;74.95;99508.50;10278909;28;20054;-71
2023/08/30 19:19:02;;;;;;;3.65;1.35;;;;;;;15.09;74.72;99499.84;10281779;28;20058;-71
2023/08/30 19:24:04;;;;;;;2.47;1.60;;;;;;;15.26;74.56;99497.34;10294420;28;20417;-70
2023/08/30 19:29:06;;;;;;;5.85;1.75;;;;;;;15.47;74.36;99498.75;10276396;28;20062;-69
2023/08/30 19:34:07;;;;;;;2.90;2.15;;;;;;;15.63;74.28;99492.69;10293775;28;20046;-69
2023/08/30 19:39:09;;;;;;;8.25;2.50;;;;;;;15.71;74.62;99479.88;10273362;28;20051;-71
2023/08/30 19:44:10;;;;;;;8.23;2.75;;;;;;;15.80;74.77;99492.06;10277975;28;20259;-70
2023/08/30 19:49:12;;;;;;;5.95;2.80;;;;;;;15.88;74.74;99497.16;10284105;28;20078;-70
2023/08/30 19:54:13;;;;;;;4.53;2.45;;;;;;;15.96;74.67;99521.22;10276208;28;20117;-71
2023/08/30 19:59:15;;;;;;;4.38;2.28;;;;;;;15.70;75.56;99532.41;10279402;28;20126;-68
2023/08/30 20:04:16;;;;;;;5.78;2.78;;;;;;;15.79;75.02;99529.16;10277876;28;20114;-69
2023/08/30 20:09:18;;;;;;;3.90;2.80;;;;;;;15.71;75.64;99559.25;10279342;28;20203;-68
2023/08/30 20:14:19;;;;;;;7.75;3.28;;;;;;;15.54;76.23;99571.78;10289085;28;20510;-69
2023/08/30 20:19:21;;;;;;;4.72;2.70;;;;;;;15.71;75.88;99575.53;10286811;28;20240;-67
2023/08/30 20:24:22;;;;;;;5.30;2.15;;;;;;;15.62;75.99;99598.56;10280486;28;20055;-68
2023/08/30 20:29:23;;;;;;;4.65;2.25;;;;;;;15.60;76.29;99576.28;10287643;28;20069;-69
2023/08/30 20:34:25;;;;;;;5.63;1.75;;;;;;;15.78;75.69;99559.22;10286302;28;20408;-71
2023/08/30 20:39:27;;;;;;;5.43;1.92;;;;;;;15.92;75.56;99579.66;10305746;28;20142;-69
2023/08/30 20:44:28;;;;;;;4.18;2.45;;;;;;;15.81;75.80;99585.84;10283965;28;20377;-70
2023/08/30 20:49:30;;;;;;;3.10;1.42;;;;;;;15.93;75.59;99583.19;10288336;28;20051;-70
2023/08/30 20:54:31;;;;;;;4.32;1.90;;;;;;;15.97;75.58;99596.03;10289237;28;20123;-71
2023/08/30 20:59:32;;;;;;;3.88;1.75;;;;;;;15.91;75.93;99607.00;10289800;28;20062;-70
2023/08/30 21:04:34;;;;;;;6.45;1.90;;;;;;;15.84;75.88;99599.78;10287608;28;20066;-70
2023/08/30 21:09:36;;;;;;;3.63;1.40;;;;;;;15.94;75.85;99601.94;10289521;28;20292;-70
2023/08/30 21:14:37;;;;;;;3.67;1.80;;;;;;;15.96;75.68;99612.56;10281667;28;20324;-71
2023/08/30 21:19:39;;;;;;;5.78;1.85;;;;;;;15.99;75.46;99606.66;10297660;28;20051;-72
2023/08/30 21:24:40;;;;;;;5.28;1.98;;;;;;;16.03;75.36;99599.72;10291090;28;20061;-71
2023/08/30 21:29:41;;;;;;;3.40;1.25;;;;;;;16.03;75.10;99592.44;10288576;28;20110;-70
2023/08/30 21:34:43;;;;;;;7.47;2.35;;;;;;;16.07;74.73;99587.34;10285503;28;20126;-71
2023/08/30 21:39:46;;;;;;;3.47;1.77;;;;;;;16.01;74.59;99593.69;10292061;28;20054;-73
2023/08/30 21:44:48;;;;;;;4.93;1.50;;;;;;;15.98;74.85;99588.75;10284849;28;20169;-71
2023/08/30 21:49:49;;;;;;;6.55;1.88;;;;;;;16.04;74.82;99602.22;10285423;28;20130;-69
2023/08/30 21:54:51;;;;;;;7.07;1.65;;;;;;;16.13;74.26;99599.16;10289333;28;20106;-69
2023/08/30 21:59:53;;;;;;;4.25;2.03;;;;;;;16.17;74.30;99594.94;10303748;28;20073;-69
2023/08/30 22:04:55;;;;;;;5.28;1.65;;;;;;;16.07;74.49;99600.91;10287369;28;20058;-67
2023/08/30 22:09:56;;;;;;;2.20;1.42;;;;;;;15.99;74.60;99598.53;10302494;28;20051;-66
2023/08/30 22:14:58;;;;;;;3.38;1.83;;;;;;;16.03;74.26;99600.56;10303827;28;20081;-66
2023/08/30 22:19:59;;;;;;;2.65;1.70;;;;;;;16.06;73.71;99589.25;10302459;28;20046;-67
2023/08/30 22:25:01;;;;;;;4.07;1.27;;;;;;;15.98;74.01;99580.63;10302906;28;20058;-67
2023/08/30 22:30:03;;;;;;;3.22;1.52;;;;;;;15.93;73.93;99581.28;10307652;28;20053;-67
2023/08/30 22:35:06;;;;;;;7.63;1.80;;;;;;;15.86;74.08;99580.59;10305438;28;20085;-67
2023/08/30 22:40:08;;;;;;;4.45;1.25;;;;;;;15.86;73.83;99586.00;10322079;28;20082;-68
2023/08/30 22:45:10;;;;;;;3.03;1.80;;;;;;;15.76;73.92;99591.97;10301312;28;20051;-70
2023/08/30 22:50:12;;;;;;;4.10;1.55;;;;;;;15.66;74.15;99591.66;10289958;28;20271;-69
2023/08/30 22:55:13;;;;;;;1.52;1.00;;;;;;;15.55;74.43;99587.00;10278996;28;20082;-69
2023/08/30 23:00:15;;;;;;;2.08;1.30;;;;;;;15.54;74.44;99594.31;10276006;28;20103;-70
2023/08/30 23:05:16;;;;;;;3.60;1.50;;;;;;;15.53;74.24;99605.38;10279890;28;20138;-71
2023/08/30 23:10:18;;;;;;;1.73;1.20;;;;;;;15.50;74.49;99609.38;10275850;28;20085;-70
2023/08/30 23:15:22;;;;;;;4.85;1.40;;;;;;;15.50;74.31;99605.81;10297948;28;20049;-70
2023/08/30 23:20:24;;;;;;;1.77;1.23;;;;;;;15.46;74.35;99616.25;10284255;28;20351;-70